sensor_id;sensor_type;location;lat;lon;timestamp;pressure;altitude;pressure_sealevel;temperature;humidity
60852;BME280;48553;50.766;2.900;2023-12-20T00:00:53;101263.88;;;6.60;100.00
60852;BME280;48553;50.766;2.900;2023-12-20T00:03:53;101265.00;;;6.59;100.00
60852;BME280;48553;50.766;2.900;2023-12-20T00:06:54;101268.81;;;6.58;100.00
60852;BME280;48553;50.766;2.900;2023-12-20T00:09:54;101274.25;;;6.58;100.00
60852;BME280;48553;50.766;2.900;2023-12-20T00:12:54;101271.84;;;6.57;100.00
60852;BME280;48553;50.766;2.900;2023-12-20T00:15:55;101270.53;;;6.54;100.00
60852;BME280;48553;50.766;2.900;2023-12-20T00:18:55;101260.19;;;6.51;100.00
60852;BME280;48553;50.766;2.900;2023-12-20T00:21:56;101259.13;;;6.52;100.00
60852;BME280;48553;50.766;2.900;2023-12-20T00:24:56;101264.03;;;6.50;100.00
60852;BME280;48553;50.766;2.900;2023-12-20T00:27:57;101242.84;;;6.47;100.00
60852;BME280;48553;50.766;2.900;2023-12-20T00:30:57;101250.50;;;6.45;100.00
60852;BME280;48553;50.766;2.900;2023-12-20T00:33:58;101246.97;;;6.44;100.00
60852;BME280;48553;50.766;2.900;2023-12-20T00:36:58;101251.31;;;6.45;100.00
60852;BME280;48553;50.766;2.900;2023-12-20T00:39:58;101255.44;;;6.43;100.00
60852;BME280;48553;50.766;2.900;2023-12-20T00:43:00;101253.00;;;6.41;100.00
60852;BME280;48553;50.766;2.900;2023-12-20T00:46:00;101246.53;;;6.37;100.00
60852;BME280;48553;50.766;2.900;2023-12-20T00:49:01;101255.50;;;6.38;100.00
60852;BME280;48553;50.766;2.900;2023-12-20T00:52:01;101258.22;;;6.38;100.00
60852;BME280;48553;50.766;2.900;2023-12-20T00:55:02;101259.94;;;6.34;100.00
60852;BME280;48553;50.766;2.900;2023-12-20T00:58:04;101264.84;;;6.32;100.00
60852;BME280;48553;50.766;2.900;2023-12-20T01:01:04;101265.94;;;6.31;100.00
60852;BME280;48553;50.766;2.900;2023-12-20T01:04:05;101268.97;;;6.29;100.00
60852;BME280;48553;50.766;2.900;2023-12-20T01:07:05;101273.59;;;6.28;100.00
60852;BME280;48553;50.766;2.900;2023-12-20T01:10:06;101260.06;;;6.23;100.00
60852;BME280;48553;50.766;2.900;2023-12-20T01:13:06;101266.03;;;6.25;100.00
60852;BME280;48553;50.766;2.900;2023-12-20T01:16:10;101268.22;;;6.23;100.00
60852;BME280;48553;50.766;2.900;2023-12-20T01:19:10;101260.94;;;6.19;100.00
60852;BME280;48553;50.766;2.900;2023-12-20T01:22:11;101274.03;;;6.17;100.00
60852;BME280;48553;50.766;2.900;2023-12-20T01:25:12;101268.59;;;6.17;100.00
60852;BME280;48553;50.766;2.900;2023-12-20T01:28:12;101271.09;;;6.13;100.00
60852;BME280;48553;50.766;2.900;2023-12-20T01:31:13;101272.72;;;6.14;100.00
60852;BME280;48553;50.766;2.900;2023-12-20T01:34:13;101270.00;;;6.14;100.00
60852;BME280;48553;50.766;2.900;2023-12-20T01:37:14;101277.91;;;6.11;100.00
60852;BME280;48553;50.766;2.900;2023-12-20T01:40:14;101276.91;;;6.06;100.00
60852;BME280;48553;50.766;2.900;2023-12-20T01:43:15;101276.06;;;6.06;100.00
60852;BME280;48553;50.766;2.900;2023-12-20T01:46:15;101262.47;;;6.06;100.00
60852;BME280;48553;50.766;2.900;2023-12-20T01:49:17;101261.47;;;6.02;100.00
60852;BME280;48553;50.766;2.900;2023-12-20T01:52:18;101258.75;;;6.02;100.00
60852;BME280;48553;50.766;2.900;2023-12-20T01:55:20;101261.75;;;6.00;100.00
60852;BME280;48553;50.766;2.900;2023-12-20T01:58:21;101253.06;;;5.98;100.00
60852;BME280;48553;50.766;2.900;2023-12-20T02:01:22;101259.91;;;5.96;100.00
60852;BME280;48553;50.766;2.900;2023-12-20T02:04:23;101261.81;;;5.95;100.00
60852;BME280;48553;50.766;2.900;2023-12-20T02:07:24;101274.59;;;5.95;100.00
60852;BME280;48553;50.766;2.900;2023-12-20T02:10:26;101285.47;;;5.95;100.00
60852;BME280;48553;50.766;2.900;2023-12-20T02:13:26;101275.94;;;5.92;100.00
60852;BME280;48553;50.766;2.900;2023-12-20T02:16:27;101265.91;;;5.93;100.00
60852;BME280;48553;50.766;2.900;2023-12-20T02:19:27;101272.72;;;5.90;100.00
60852;BME280;48553;50.766;2.900;2023-12-20T02:22:28;101273.00;;;5.89;100.00
60852;BME280;48553;50.766;2.900;2023-12-20T02:25:28;101276.03;;;5.87;100.00
60852;BME280;48553;50.766;2.900;2023-12-20T02:28:29;101285.78;;;5.88;100.00
60852;BME280;48553;50.766;2.900;2023-12-20T02:31:29;101286.63;;;5.89;100.00
60852;BME280;48553;50.766;2.900;2023-12-20T02:34:30;101285.28;;;5.86;100.00
60852;BME280;48553;50.766;2.900;2023-12-20T02:37:30;101279.63;;;5.82;100.00
60852;BME280;48553;50.766;2.900;2023-12-20T02:40:31;101280.72;;;5.81;100.00
60852;BME280;48553;50.766;2.900;2023-12-20T02:43:33;101272.25;;;5.83;100.00
60852;BME280;48553;50.766;2.900;2023-12-20T02:46:33;101275.56;;;5.80;100.00
60852;BME280;48553;50.766;2.900;2023-12-20T02:49:33;101271.72;;;5.81;100.00
60852;BME280;48553;50.766;2.900;2023-12-20T02:52:34;101264.97;;;5.78;100.00
60852;BME280;48553;50.766;2.900;2023-12-20T02:55:34;101268.81;;;5.77;100.00
60852;BME280;48553;50.766;2.900;2023-12-20T02:58:35;101266.09;;;5.77;100.00
60852;BME280;48553;50.766;2.900;2023-12-20T03:01:41;101263.66;;;5.76;100.00
60852;BME280;48553;50.766;2.900;2023-12-20T03:04:42;101261.44;;;5.78;100.00
60852;BME280;48553;50.766;2.900;2023-12-20T03:07:43;101262.84;;;5.75;100.00
60852;BME280;48553;50.766;2.900;2023-12-20T03:10:43;101263.72;;;5.71;100.00
60852;BME280;48553;50.766;2.900;2023-12-20T03:13:44;101277.53;;;5.74;100.00
60852;BME280;48553;50.766;2.900;2023-12-20T03:16:49;101263.41;;;5.72;100.00
60852;BME280;48553;50.766;2.900;2023-12-20T03:19:49;101269.44;;;5.69;100.00
60852;BME280;48553;50.766;2.900;2023-12-20T03:22:50;101256.13;;;5.68;100.00
60852;BME280;48553;50.766;2.900;2023-12-20T03:25:50;101265.38;;;5.67;100.00
60852;BME280;48553;50.766;2.900;2023-12-20T03:28:51;101270.03;;;5.66;100.00
60852;BME280;48553;50.766;2.900;2023-12-20T03:31:52;101263.25;;;5.63;100.00
60852;BME280;48553;50.766;2.900;2023-12-20T03:34:52;101264.84;;;5.64;100.00
60852;BME280;48553;50.766;2.900;2023-12-20T03:37:53;101266.78;;;5.64;100.00
60852;BME280;48553;50.766;2.900;2023-12-20T03:40:53;101269.78;;;5.62;100.00
60852;BME280;48553;50.766;2.900;2023-12-20T03:43:54;101270.56;;;5.63;100.00
60852;BME280;48553;50.766;2.900;2023-12-20T03:46:54;101273.59;;;5.61;100.00
60852;BME280;48553;50.766;2.900;2023-12-20T03:49:55;101266.00;;;5.58;100.00
60852;BME280;48553;50.766;2.900;2023-12-20T03:52:55;101254.59;;;5.56;100.00
60852;BME280;48553;50.766;2.900;2023-12-20T03:55:56;101250.00;;;5.57;100.00
60852;BME280;48553;50.766;2.900;2023-12-20T03:58:56;101252.19;;;5.55;100.00
60852;BME280;48553;50.766;2.900;2023-12-20T04:01:56;101252.72;;;5.57;100.00
60852;BME280;48553;50.766;2.900;2023-12-20T04:04:57;101253.81;;;5.56;100.00
60852;BME280;48553;50.766;2.900;2023-12-20T04:07:59;101256.31;;;5.52;100.00
60852;BME280;48553;50.766;2.900;2023-12-20T04:10:59;101263.06;;;5.55;100.00
60852;BME280;48553;50.766;2.900;2023-12-20T04:14:00;101260.63;;;5.53;100.00
60852;BME280;48553;50.766;2.900;2023-12-20T04:17:01;101260.13;;;5.51;100.00
60852;BME280;48553;50.766;2.900;2023-12-20T04:20:01;101273.44;;;5.53;100.00
60852;BME280;48553;50.766;2.900;2023-12-20T04:23:02;101264.16;;;5.54;100.00
60852;BME280;48553;50.766;2.900;2023-12-20T04:26:03;101257.41;;;5.51;100.00
60852;BME280;48553;50.766;2.900;2023-12-20T04:29:03;101259.84;;;5.53;100.00
60852;BME280;48553;50.766;2.900;2023-12-20T04:32:04;101255.47;;;5.52;100.00
60852;BME280;48553;50.766;2.900;2023-12-20T04:35:05;101257.69;;;5.50;100.00
60852;BME280;48553;50.766;2.900;2023-12-20T04:38:06;101272.38;;;5.49;100.00
60852;BME280;48553;50.766;2.900;2023-12-20T04:41:06;101271.84;;;5.47;100.00
60852;BME280;48553;50.766;2.900;2023-12-20T04:44:07;101272.66;;;5.47;100.00
60852;BME280;48553;50.766;2.900;2023-12-20T04:47:07;101263.69;;;5.47;100.00
60852;BME280;48553;50.766;2.900;2023-12-20T04:50:08;101268.59;;;5.44;100.00
60852;BME280;48553;50.766;2.900;2023-12-20T04:53:09;101270.81;;;5.42;100.00
60852;BME280;48553;50.766;2.900;2023-12-20T04:56:10;101264.03;;;5.40;100.00
60852;BME280;48553;50.766;2.900;2023-12-20T04:59:10;101261.03;;;5.41;100.00
60852;BME280;48553;50.766;2.900;2023-12-20T05:02:11;101261.31;;;5.40;100.00
60852;BME280;48553;50.766;2.900;2023-12-20T05:05:11;101262.44;;;5.39;100.00
60852;BME280;48553;50.766;2.900;2023-12-20T05:08:12;101261.09;;;5.36;100.00
60852;BME280;48553;50.766;2.900;2023-12-20T05:11:13;101259.19;;;5.37;100.00
60852;BME280;48553;50.766;2.900;2023-12-20T05:14:15;101265.16;;;5.39;100.00
60852;BME280;48553;50.766;2.900;2023-12-20T05:17:15;101273.59;;;5.37;100.00
60852;BME280;48553;50.766;2.900;2023-12-20T05:20:16;101271.66;;;5.38;100.00
60852;BME280;48553;50.766;2.900;2023-12-20T05:23:17;101264.91;;;5.35;100.00
60852;BME280;48553;50.766;2.900;2023-12-20T05:26:17;101267.63;;;5.35;100.00
60852;BME280;48553;50.766;2.900;2023-12-20T05:29:18;101259.78;;;5.34;100.00
60852;BME280;48553;50.766;2.900;2023-12-20T05:32:18;101252.13;;;5.36;100.00
60852;BME280;48553;50.766;2.900;2023-12-20T05:35:19;101254.03;;;5.35;100.00
60852;BME280;48553;50.766;2.900;2023-12-20T05:38:19;101257.34;;;5.32;100.00
60852;BME280;48553;50.766;2.900;2023-12-20T05:41:20;101266.56;;;5.31;100.00
60852;BME280;48553;50.766;2.900;2023-12-20T05:44:21;101264.97;;;5.30;100.00
60852;BME280;48553;50.766;2.900;2023-12-20T05:47:22;101273.38;;;5.29;100.00
60852;BME280;48553;50.766;2.900;2023-12-20T05:50:22;101274.22;;;5.29;100.00
60852;BME280;48553;50.766;2.900;2023-12-20T05:53:23;101267.69;;;5.30;100.00
60852;BME280;48553;50.766;2.900;2023-12-20T05:56:23;101274.22;;;5.29;100.00
60852;BME280;48553;50.766;2.900;2023-12-20T05:59:24;101281.03;;;5.27;100.00
60852;BME280;48553;50.766;2.900;2023-12-20T06:02:24;101283.47;;;5.28;100.00
60852;BME280;48553;50.766;2.900;2023-12-20T06:05:25;101288.09;;;5.28;100.00
60852;BME280;48553;50.766;2.900;2023-12-20T06:08:25;101276.97;;;5.24;100.00
60852;BME280;48553;50.766;2.900;2023-12-20T06:11:26;101272.91;;;5.21;100.00
60852;BME280;48553;50.766;2.900;2023-12-20T06:14:26;101278.09;;;5.23;100.00
60852;BME280;48553;50.766;2.900;2023-12-20T06:17:27;101283.00;;;5.21;100.00
60852;BME280;48553;50.766;2.900;2023-12-20T06:20:30;101271.59;;;5.19;100.00
60852;BME280;48553;50.766;2.900;2023-12-20T06:23:30;101284.91;;;5.20;100.00
60852;BME280;48553;50.766;2.900;2023-12-20T06:26:31;101277.56;;;5.21;100.00
60852;BME280;48553;50.766;2.900;2023-12-20T06:29:31;101283.25;;;5.19;100.00
60852;BME280;48553;50.766;2.900;2023-12-20T06:32:32;101276.75;;;5.20;100.00
60852;BME280;48553;50.766;2.900;2023-12-20T06:35:34;101279.22;;;5.17;100.00
60852;BME280;48553;50.766;2.900;2023-12-20T06:38:34;101286.28;;;5.18;100.00
60852;BME280;48553;50.766;2.900;2023-12-20T06:41:35;101294.44;;;5.18;100.00
60852;BME280;48553;50.766;2.900;2023-12-20T06:44:35;101296.63;;;5.16;100.00
60852;BME280;48553;50.766;2.900;2023-12-20T06:47:37;101289.00;;;5.18;100.00
60852;BME280;48553;50.766;2.900;2023-12-20T06:50:37;101291.19;;;5.16;100.00
60852;BME280;48553;50.766;2.900;2023-12-20T06:53:40;101286.31;;;5.13;100.00
60852;BME280;48553;50.766;2.900;2023-12-20T06:56:40;101279.00;;;5.13;100.00
60852;BME280;48553;50.766;2.900;2023-12-20T06:59:41;101275.44;;;5.13;100.00
60852;BME280;48553;50.766;2.900;2023-12-20T07:02:42;101268.41;;;5.12;100.00
60852;BME280;48553;50.766;2.900;2023-12-20T07:05:44;101262.44;;;5.10;100.00
60852;BME280;48553;50.766;2.900;2023-12-20T07:08:44;101263.56;;;5.09;100.00
60852;BME280;48553;50.766;2.900;2023-12-20T07:11:44;101249.97;;;5.09;100.00
60852;BME280;48553;50.766;2.900;2023-12-20T07:14:46;101254.28;;;5.10;100.00
60852;BME280;48553;50.766;2.900;2023-12-20T07:17:46;101249.72;;;5.05;100.00
60852;BME280;48553;50.766;2.900;2023-12-20T07:20:46;101257.06;;;5.05;100.00
60852;BME280;48553;50.766;2.900;2023-12-20T07:23:47;101257.06;;;5.05;100.00
60852;BME280;48553;50.766;2.900;2023-12-20T07:26:48;101253.50;;;5.04;100.00
60852;BME280;48553;50.766;2.900;2023-12-20T07:29:49;101254.09;;;5.01;100.00
60852;BME280;48553;50.766;2.900;2023-12-20T07:32:50;101259.81;;;4.99;100.00
60852;BME280;48553;50.766;2.900;2023-12-20T07:35:50;101257.63;;;5.01;100.00
60852;BME280;48553;50.766;2.900;2023-12-20T07:38:52;101266.06;;;5.00;100.00
60852;BME280;48553;50.766;2.900;2023-12-20T07:41:52;101265.53;;;4.98;100.00
60852;BME280;48553;50.766;2.900;2023-12-20T07:44:52;101264.22;;;4.95;100.00
60852;BME280;48553;50.766;2.900;2023-12-20T07:47:53;101271.84;;;4.93;100.00
60852;BME280;48553;50.766;2.900;2023-12-20T07:50:53;101261.19;;;4.97;100.00
60852;BME280;48553;50.766;2.900;2023-12-20T07:53:54;101268.81;;;4.95;100.00
60852;BME280;48553;50.766;2.900;2023-12-20T07:56:55;101281.31;;;4.96;100.00
60852;BME280;48553;50.766;2.900;2023-12-20T07:59:56;101278.59;;;4.96;100.00
60852;BME280;48553;50.766;2.900;2023-12-20T08:02:56;101291.91;;;4.92;100.00
60852;BME280;48553;50.766;2.900;2023-12-20T08:05:56;101280.78;;;4.94;100.00
60852;BME280;48553;50.766;2.900;2023-12-20T08:08:59;101283.78;;;4.92;100.00
60852;BME280;48553;50.766;2.900;2023-12-20T08:12:00;101285.41;;;4.93;100.00
60852;BME280;48553;50.766;2.900;2023-12-20T08:15:01;101280.78;;;4.94;100.00
60852;BME280;48553;50.766;2.900;2023-12-20T08:18:02;101288.66;;;4.95;100.00
60852;BME280;48553;50.766;2.900;2023-12-20T08:21:03;101298.66;;;5.00;100.00
60852;BME280;48553;50.766;2.900;2023-12-20T08:24:03;101299.69;;;5.04;100.00
60852;BME280;48553;50.766;2.900;2023-12-20T08:27:04;101290.75;;;5.03;100.00
60852;BME280;48553;50.766;2.900;2023-12-20T08:30:05;101291.84;;;5.02;100.00
60852;BME280;48553;50.766;2.900;2023-12-20T08:33:06;101292.13;;;5.01;100.00
60852;BME280;48553;50.766;2.900;2023-12-20T08:36:11;101282.06;;;5.01;100.00
60852;BME280;48553;50.766;2.900;2023-12-20T08:39:12;101276.59;;;5.07;100.00
60852;BME280;48553;50.766;2.900;2023-12-20T08:42:13;101269.00;;;5.09;100.00
60852;BME280;48553;50.766;2.900;2023-12-20T08:45:13;101267.88;;;5.10;100.00
60852;BME280;48553;50.766;2.900;2023-12-20T08:48:13;101260.84;;;5.09;100.00
60852;BME280;48553;50.766;2.900;2023-12-20T08:51:14;101267.06;;;5.09;100.00
60852;BME280;48553;50.766;2.900;2023-12-20T08:54:14;101261.59;;;5.14;100.00
60852;BME280;48553;50.766;2.900;2023-12-20T08:57:18;101260.78;;;5.14;100.00
60852;BME280;48553;50.766;2.900;2023-12-20T09:00:18;101270.00;;;5.13;100.00
60852;BME280;48553;50.766;2.900;2023-12-20T09:03:21;101278.16;;;5.13;100.00
60852;BME280;48553;50.766;2.900;2023-12-20T09:06:21;101288.28;;;5.60;100.00
60852;BME280;48553;50.766;2.900;2023-12-20T09:09:21;101279.91;;;6.05;100.00
60852;BME280;48553;50.766;2.900;2023-12-20T09:12:22;101279.19;;;6.18;100.00
60852;BME280;48553;50.766;2.900;2023-12-20T09:15:24;101279.84;;;5.62;100.00
60852;BME280;48553;50.766;2.900;2023-12-20T09:18:24;101269.38;;;5.50;100.00
60852;BME280;48553;50.766;2.900;2023-12-20T09:21:26;101265.38;;;5.42;100.00
60852;BME280;48553;50.766;2.900;2023-12-20T09:24:26;101263.75;;;5.41;100.00
60852;BME280;48553;50.766;2.900;2023-12-20T09:27:27;101271.31;;;5.44;100.00
60852;BME280;48553;50.766;2.900;2023-12-20T09:30:27;101256.34;;;5.47;100.00
60852;BME280;48553;50.766;2.900;2023-12-20T09:33:29;101266.59;;;5.55;100.00
60852;BME280;48553;50.766;2.900;2023-12-20T09:36:29;101261.16;;;5.55;100.00
60852;BME280;48553;50.766;2.900;2023-12-20T09:39:31;101265.72;;;5.60;100.00
60852;BME280;48553;50.766;2.900;2023-12-20T09:42:47;101261.22;;;5.98;100.00
60852;BME280;48553;50.766;2.900;2023-12-20T09:45:53;101257.00;;;7.42;98.23
60852;BME280;48553;50.766;2.900;2023-12-20T09:48:53;101255.09;;;8.34;92.11
60852;BME280;48553;50.766;2.900;2023-12-20T09:51:54;101264.06;;;9.16;87.41
60852;BME280;48553;50.766;2.900;2023-12-20T09:54:55;101260.47;;;9.70;85.32
60852;BME280;48553;50.766;2.900;2023-12-20T09:57:57;101266.16;;;9.91;84.16
60852;BME280;48553;50.766;2.900;2023-12-20T10:00:58;101278.06;;;10.03;84.03
60852;BME280;48553;50.766;2.900;2023-12-20T10:04:00;101269.16;;;10.38;81.99
60852;BME280;48553;50.766;2.900;2023-12-20T10:07:03;101264.63;;;10.51;81.49
60852;BME280;48553;50.766;2.900;2023-12-20T10:10:04;101267.47;;;10.02;83.82
60852;BME280;48553;50.766;2.900;2023-12-20T10:13:10;101265.59;;;8.55;91.19
60852;BME280;48553;50.766;2.900;2023-12-20T10:16:10;101265.50;;;7.96;95.09
60852;BME280;48553;50.766;2.900;2023-12-20T10:19:11;101269.03;;;7.41;99.96
60852;BME280;48553;50.766;2.900;2023-12-20T10:22:11;101257.91;;;7.24;100.00
60852;BME280;48553;50.766;2.900;2023-12-20T10:25:12;101253.22;;;7.10;100.00
60852;BME280;48553;50.766;2.900;2023-12-20T10:28:14;101238.47;;;6.98;100.00
60852;BME280;48553;50.766;2.900;2023-12-20T10:31:27;101238.34;;;6.89;100.00
60852;BME280;48553;50.766;2.900;2023-12-20T10:34:28;101232.28;;;6.92;100.00
60852;BME280;48553;50.766;2.900;2023-12-20T10:37:29;101227.97;;;6.91;100.00
60852;BME280;48553;50.766;2.900;2023-12-20T10:40:30;101231.03;;;8.00;99.54
60852;BME280;48553;50.766;2.900;2023-12-20T10:43:32;101223.88;;;8.41;97.08
60852;BME280;48553;50.766;2.900;2023-12-20T10:46:34;101221.88;;;8.55;96.73
60852;BME280;48553;50.766;2.900;2023-12-20T10:49:36;101226.59;;;8.41;98.06
60852;BME280;48553;50.766;2.900;2023-12-20T10:52:37;101221.66;;;8.65;98.26
60852;BME280;48553;50.766;2.900;2023-12-20T10:55:38;101231.06;;;8.82;97.62
60852;BME280;48553;50.766;2.900;2023-12-20T10:58:41;101223.97;;;8.58;99.39
60852;BME280;48553;50.766;2.900;2023-12-20T11:01:43;101223.38;;;8.25;100.00
60852;BME280;48553;50.766;2.900;2023-12-20T11:04:50;101228.59;;;7.99;100.00
60852;BME280;48553;50.766;2.900;2023-12-20T11:14:58;101219.31;;;7.72;100.00
60852;BME280;48553;50.766;2.900;2023-12-20T11:18:05;101212.38;;;7.66;100.00
60852;BME280;48553;50.766;2.900;2023-12-20T11:21:06;101199.94;;;7.60;100.00
60852;BME280;48553;50.766;2.900;2023-12-20T11:24:07;101191.56;;;7.56;100.00
60852;BME280;48553;50.766;2.900;2023-12-20T11:27:07;101186.22;;;7.51;100.00
60852;BME280;48553;50.766;2.900;2023-12-20T11:30:08;101187.00;;;7.51;100.00
60852;BME280;48553;50.766;2.900;2023-12-20T11:33:10;101182.38;;;7.52;100.00
60852;BME280;48553;50.766;2.900;2023-12-20T11:36:14;101174.81;;;7.49;100.00
60852;BME280;48553;50.766;2.900;2023-12-20T11:39:20;101174.00;;;7.48;100.00
60852;BME280;48553;50.766;2.900;2023-12-20T11:42:21;101165.31;;;7.46;100.00
60852;BME280;48553;50.766;2.900;2023-12-20T11:45:24;101165.31;;;7.46;100.00
60852;BME280;48553;50.766;2.900;2023-12-20T11:48:25;101173.69;;;7.50;100.00
60852;BME280;48553;50.766;2.900;2023-12-20T11:51:25;101163.09;;;7.48;100.00
60852;BME280;48553;50.766;2.900;2023-12-20T11:54:25;101151.16;;;7.58;100.00
60852;BME280;48553;50.766;2.900;2023-12-20T11:57:26;101148.41;;;7.58;100.00
60852;BME280;48553;50.766;2.900;2023-12-20T12:00:26;101141.88;;;7.59;100.00
60852;BME280;48553;50.766;2.900;2023-12-20T12:03:27;101151.25;;;7.67;100.00
60852;BME280;48553;50.766;2.900;2023-12-20T12:06:27;101136.59;;;7.63;100.00
60852;BME280;48553;50.766;2.900;2023-12-20T12:09:28;101130.53;;;7.66;100.00
60852;BME280;48553;50.766;2.900;2023-12-20T12:12:28;101134.88;;;7.67;100.00
60852;BME280;48553;50.766;2.900;2023-12-20T12:15:30;101135.38;;;7.69;100.00
60852;BME280;48553;50.766;2.900;2023-12-20T12:18:30;101127.69;;;7.71;100.00
60852;BME280;48553;50.766;2.900;2023-12-20T12:21:31;101130.22;;;7.81;100.00
60852;BME280;48553;50.766;2.900;2023-12-20T12:24:31;101121.91;;;7.86;100.00
60852;BME280;48553;50.766;2.900;2023-12-20T12:27:32;101124.09;;;7.98;100.00
60852;BME280;48553;50.766;2.900;2023-12-20T12:30:33;101125.03;;;8.16;100.00
60852;BME280;48553;50.766;2.900;2023-12-20T12:33:34;101107.94;;;8.33;100.00
60852;BME280;48553;50.766;2.900;2023-12-20T12:36:34;101101.00;;;8.27;100.00
60852;BME280;48553;50.766;2.900;2023-12-20T12:39:35;101099.31;;;8.17;100.00
60852;BME280;48553;50.766;2.900;2023-12-20T12:42:36;101086.44;;;8.09;100.00
60852;BME280;48553;50.766;2.900;2023-12-20T12:45:37;101091.25;;;8.12;100.00
60852;BME280;48553;50.766;2.900;2023-12-20T12:48:37;101087.66;;;8.25;100.00
60852;BME280;48553;50.766;2.900;2023-12-20T12:51:39;101073.06;;;8.30;100.00
60852;BME280;48553;50.766;2.900;2023-12-20T12:54:39;101070.84;;;8.32;100.00
60852;BME280;48553;50.766;2.900;2023-12-20T12:57:40;101074.22;;;8.37;100.00
60852;BME280;48553;50.766;2.900;2023-12-20T13:00:40;101081.72;;;8.46;100.00
60852;BME280;48553;50.766;2.900;2023-12-20T13:03:42;101073.03;;;8.44;100.00
60852;BME280;48553;50.766;2.900;2023-12-20T13:06:42;101069.09;;;8.36;100.00
60852;BME280;48553;50.766;2.900;2023-12-20T13:09:43;101056.06;;;8.33;100.00
60852;BME280;48553;50.766;2.900;2023-12-20T13:12:43;101045.78;;;8.30;100.00
60852;BME280;48553;50.766;2.900;2023-12-20T13:15:43;101033.84;;;8.26;100.00
60852;BME280;48553;50.766;2.900;2023-12-20T13:18:51;101036.09;;;8.24;100.00
60852;BME280;48553;50.766;2.900;2023-12-20T13:21:51;101020.34;;;8.21;100.00
60852;BME280;48553;50.766;2.900;2023-12-20T13:24:51;101021.13;;;8.21;100.00
60852;BME280;48553;50.766;2.900;2023-12-20T13:27:53;101013.75;;;8.22;100.00
60852;BME280;48553;50.766;2.900;2023-12-20T13:30:53;101017.31;;;8.22;100.00
60852;BME280;48553;50.766;2.900;2023-12-20T13:33:54;101021.13;;;8.21;100.00
60852;BME280;48553;50.766;2.900;2023-12-20T13:36:54;101015.38;;;8.23;100.00
60852;BME280;48553;50.766;2.900;2023-12-20T13:39:54;101014.88;;;8.21;100.00
60852;BME280;48553;50.766;2.900;2023-12-20T13:42:55;101017.91;;;8.19;100.00
60852;BME280;48553;50.766;2.900;2023-12-20T13:45:56;101014.69;;;8.17;100.00
60852;BME280;48553;50.766;2.900;2023-12-20T13:48:56;101007.63;;;8.16;100.00
60852;BME280;48553;50.766;2.900;2023-12-20T13:51:57;101002.47;;;8.14;100.00
60852;BME280;48553;50.766;2.900;2023-12-20T13:54:58;100996.03;;;8.10;100.00
60852;BME280;48553;50.766;2.900;2023-12-20T13:57:59;100989.75;;;8.10;100.00
60852;BME280;48553;50.766;2.900;2023-12-20T14:00:59;100983.81;;;8.08;100.00
60852;BME280;48553;50.766;2.900;2023-12-20T14:03:59;100986.53;;;8.08;100.00
60852;BME280;48553;50.766;2.900;2023-12-20T14:07:01;100988.47;;;8.07;100.00
60852;BME280;48553;50.766;2.900;2023-12-20T14:10:02;100977.56;;;8.07;100.00
60852;BME280;48553;50.766;2.900;2023-12-20T14:13:02;100976.25;;;8.05;100.00
60852;BME280;48553;50.766;2.900;2023-12-20T14:16:03;100971.91;;;8.04;100.00
60852;BME280;48553;50.766;2.900;2023-12-20T14:19:04;100973.03;;;8.03;100.00
60852;BME280;48553;50.766;2.900;2023-12-20T14:22:07;100956.66;;;8.03;100.00
60852;BME280;48553;50.766;2.900;2023-12-20T14:25:08;100936.75;;;8.02;100.00
60852;BME280;48553;50.766;2.900;2023-12-20T14:28:08;100935.94;;;8.02;100.00
60852;BME280;48553;50.766;2.900;2023-12-20T14:31:10;100949.59;;;8.02;100.00
60852;BME280;48553;50.766;2.900;2023-12-20T14:34:10;100957.44;;;8.03;100.00
60852;BME280;48553;50.766;2.900;2023-12-20T14:37:11;100950.88;;;8.04;100.00
60852;BME280;48553;50.766;2.900;2023-12-20T14:40:12;100939.78;;;8.01;100.00
60852;BME280;48553;50.766;2.900;2023-12-20T14:43:16;100932.72;;;8.00;100.00
60852;BME280;48553;50.766;2.900;2023-12-20T14:46:17;100926.44;;;7.99;100.00
60852;BME280;48553;50.766;2.900;2023-12-20T14:49:17;100932.41;;;8.01;100.00
60852;BME280;48553;50.766;2.900;2023-12-20T14:52:18;100938.19;;;8.00;100.00
60852;BME280;48553;50.766;2.900;2023-12-20T14:55:19;100939.28;;;7.99;100.00
60852;BME280;48553;50.766;2.900;2023-12-20T14:58:19;100949.22;;;7.94;100.00
60852;BME280;48553;50.766;2.900;2023-12-20T15:01:20;100946.00;;;7.92;100.00
60852;BME280;48553;50.766;2.900;2023-12-20T15:04:21;100937.00;;;7.92;100.00
60852;BME280;48553;50.766;2.900;2023-12-20T15:07:28;100918.03;;;7.87;100.00
60852;BME280;48553;50.766;2.900;2023-12-20T15:10:29;100935.56;;;7.86;100.00
60852;BME280;48553;50.766;2.900;2023-12-20T15:13:31;100939.56;;;7.88;100.00
60852;BME280;48553;50.766;2.900;2023-12-20T15:16:31;100932.81;;;7.86;100.00
60852;BME280;48553;50.766;2.900;2023-12-20T15:19:32;100932.31;;;7.84;100.00
60852;BME280;48553;50.766;2.900;2023-12-20T15:22:32;100947.56;;;7.85;100.00
60852;BME280;48553;50.766;2.900;2023-12-20T15:25:36;100944.34;;;7.83;100.00
60852;BME280;48553;50.766;2.900;2023-12-20T15:28:36;100956.88;;;7.84;100.00
60852;BME280;48553;50.766;2.900;2023-12-20T15:31:37;100964.56;;;7.82;100.00
60852;BME280;48553;50.766;2.900;2023-12-20T15:34:41;100964.06;;;7.80;100.00
60852;BME280;48553;50.766;2.900;2023-12-20T15:37:42;100955.09;;;7.79;100.00
60852;BME280;48553;50.766;2.900;2023-12-20T15:40:43;100967.09;;;7.78;100.00
60852;BME280;48553;50.766;2.900;2023-12-20T15:43:43;100959.41;;;7.80;100.00
60852;BME280;48553;50.766;2.900;2023-12-20T15:46:43;100952.97;;;7.76;100.00
60852;BME280;48553;50.766;2.900;2023-12-20T15:49:44;100958.13;;;7.78;100.00
60852;BME280;48553;50.766;2.900;2023-12-20T15:52:47;100954.91;;;7.76;100.00